createdAt,value
2018-10-01T00:00:13.266Z,968.05
2018-10-01T00:01:13.337Z,968.02
2018-10-01T00:02:13.371Z,968.04
2018-10-01T00:03:13.450Z,968.05
2018-10-01T00:04:13.458Z,968.03
2018-10-01T00:05:13.528Z,967.99
2018-10-01T00:06:13.566Z,968.03
2018-10-01T00:07:13.634Z,968.05
2018-10-01T00:08:13.682Z,968.04
2018-10-01T00:09:13.726Z,968.05
2018-10-01T00:10:13.757Z,968.03
2018-10-01T00:11:13.809Z,968.05
2018-10-01T00:12:13.884Z,968.05
2018-10-01T00:13:13.898Z,968.00
2018-10-01T00:14:13.960Z,968.01
2018-10-01T00:15:13.997Z,968.00
2018-10-01T00:16:14.050Z,968.02
2018-10-01T00:17:14.122Z,968.06
2018-10-01T00:18:14.167Z,968.02
2018-10-01T00:19:14.209Z,968.02
2018-10-01T00:20:14.244Z,967.99
2018-10-01T00:21:14.311Z,967.98
2018-10-01T00:22:14.347Z,967.99
2018-10-01T00:23:14.412Z,968.02
2018-10-01T00:24:14.436Z,967.97
2018-10-01T00:25:14.486Z,967.97
2018-10-01T00:26:14.535Z,967.95
2018-10-01T00:27:14.582Z,967.89
2018-10-01T00:28:14.658Z,967.92
2018-10-01T00:29:14.683Z,967.90
2018-10-01T00:30:14.735Z,967.90
2018-10-01T00:31:14.787Z,967.87
2018-10-01T00:32:14.829Z,967.83
2018-10-01T00:33:14.935Z,967.83
2018-10-01T00:34:14.927Z,967.86
2018-10-01T00:35:14.977Z,967.84
2018-10-01T00:36:15.039Z,967.81
2018-10-01T00:37:15.073Z,967.82
2018-10-01T00:38:15.152Z,967.83
2018-10-01T00:39:15.170Z,967.82
2018-10-01T00:40:15.227Z,967.78
2018-10-01T00:41:15.272Z,967.78
2018-10-01T00:42:15.320Z,967.70
2018-10-01T00:43:15.390Z,967.73
2018-10-01T00:44:15.416Z,967.72
2018-10-01T00:45:15.485Z,967.70
2018-10-01T00:46:15.511Z,967.70
2018-10-01T00:47:15.566Z,967.70
2018-10-01T00:48:15.611Z,967.69
2018-10-01T00:49:15.679Z,967.67
2018-10-01T00:50:15.709Z,967.62
2018-10-01T00:51:15.764Z,967.64
2018-10-01T00:52:15.802Z,967.60
2018-10-01T00:53:15.860Z,967.59
2018-10-01T00:54:15.928Z,967.54
2018-10-01T00:55:15.958Z,967.55
2018-10-01T00:56:16.019Z,967.55
2018-10-01T00:57:16.055Z,967.54
2018-10-01T00:58:16.097Z,967.53
2018-10-01T00:59:16.155Z,967.54
2018-10-01T01:00:16.217Z,967.54
2018-10-01T01:01:16.250Z,967.57
2018-10-01T01:02:16.297Z,967.55
2018-10-01T01:03:16.348Z,967.50
2018-10-01T01:04:16.390Z,967.51
2018-10-01T01:05:16.465Z,967.51
2018-10-01T01:06:16.514Z,967.51
2018-10-01T01:07:16.553Z,967.52
2018-10-01T01:08:16.594Z,967.49
2018-10-01T01:09:16.633Z,967.50
2018-10-01T01:10:16.695Z,967.52
2018-10-01T01:11:16.756Z,967.51
2018-10-01T01:12:16.783Z,967.52
2018-10-01T01:13:16.829Z,967.44
2018-10-01T01:14:16.878Z,967.47
2018-10-01T01:15:16.938Z,967.45
2018-10-01T01:16:17.003Z,967.44
2018-10-01T01:17:17.033Z,967.43
2018-10-01T01:18:17.075Z,967.45
2018-10-01T01:19:17.123Z,967.46
2018-10-01T01:20:17.178Z,967.45
2018-10-01T01:21:17.260Z,967.42
2018-10-01T01:22:17.271Z,967.43
2018-10-01T01:23:17.317Z,967.40
2018-10-01T01:24:17.365Z,967.39
2018-10-01T01:25:17.419Z,967.44
2018-10-01T01:26:17.486Z,967.39
2018-10-01T01:27:17.544Z,967.42
2018-10-01T01:28:17.583Z,967.41
2018-10-01T01:29:17.615Z,967.42
2018-10-01T01:30:17.663Z,967.37
2018-10-01T01:31:17.716Z,967.38
2018-10-01T01:32:17.762Z,967.42
2018-10-01T01:33:17.835Z,967.38
2018-10-01T01:34:17.860Z,967.39
2018-10-01T01:35:17.904Z,967.39
2018-10-01T01:36:17.975Z,967.37
2018-10-01T01:37:18.006Z,967.34
2018-10-01T01:38:18.079Z,967.33
2018-10-01T01:39:18.102Z,967.33
2018-10-01T01:40:18.154Z,967.32
2018-10-01T01:41:18.201Z,967.33
2018-10-01T01:42:18.269Z,967.33
2018-10-01T01:43:18.298Z,967.34
2018-10-01T01:44:18.368Z,967.33
2018-10-01T01:45:18.434Z,967.33
2018-10-01T01:46:18.451Z,967.27
2018-10-01T01:47:18.491Z,967.27
2018-10-01T01:48:18.595Z,967.29
2018-10-01T01:49:18.614Z,967.29
2018-10-01T01:50:18.686Z,967.30
2018-10-01T01:51:18.686Z,967.27
2018-10-01T01:52:18.738Z,967.29
2018-10-01T01:53:18.787Z,967.27
2018-10-01T01:54:18.852Z,967.29
2018-10-01T01:55:18.890Z,967.27
2018-10-01T01:56:18.943Z,967.24
2018-10-01T01:57:19.000Z,967.23
2018-10-01T01:58:19.028Z,967.23
2018-10-01T01:59:19.099Z,967.23
2018-10-01T02:00:19.146Z,967.20
2018-10-01T02:01:19.181Z,967.20
2018-10-01T02:02:19.248Z,967.15
2018-10-01T02:03:19.281Z,967.19
2018-10-01T02:04:19.323Z,967.15
2018-10-01T02:05:19.394Z,967.14
2018-10-01T02:06:19.423Z,967.18
2018-10-01T02:07:19.470Z,967.16
2018-10-01T02:08:19.516Z,967.15
2018-10-01T02:09:19.596Z,967.11
2018-10-01T02:10:19.617Z,967.11
2018-10-01T02:11:19.688Z,967.10
2018-10-01T02:12:19.714Z,967.11
2018-10-01T02:13:19.765Z,967.09
2018-10-01T02:14:19.811Z,967.08
2018-10-01T02:15:19.861Z,967.06
2018-10-01T02:16:19.940Z,967.02
2018-10-01T02:17:19.963Z,967.06
2018-10-01T02:18:20.017Z,967.11
2018-10-01T02:19:20.054Z,967.07
2018-10-01T02:20:20.113Z,967.09
2018-10-01T02:21:20.171Z,967.08
2018-10-01T02:22:20.213Z,967.08
2018-10-01T02:23:20.252Z,967.08
2018-10-01T02:24:20.301Z,967.08
2018-10-01T02:25:20.349Z,967.06
2018-10-01T02:26:20.421Z,967.08
2018-10-01T02:27:20.452Z,967.03
2018-10-01T02:28:20.500Z,967.07
2018-10-01T02:29:20.541Z,967.06
2018-10-01T02:30:20.594Z,967.07
2018-10-01T02:31:20.684Z,967.03
2018-10-01T02:32:20.723Z,967.02
2018-10-01T02:33:20.743Z,967.03
2018-10-01T02:34:20.792Z,967.06
2018-10-01T02:35:20.839Z,967.03
2018-10-01T02:36:20.888Z,967.00
2018-10-01T02:37:20.959Z,966.98
2018-10-01T02:38:21.006Z,966.96
2018-10-01T02:39:21.127Z,966.94
2018-10-01T02:40:21.081Z,966.94
2018-10-01T02:41:21.131Z,966.93
2018-10-01T02:42:21.213Z,966.94
2018-10-01T02:43:21.248Z,966.96
2018-10-01T02:44:21.278Z,966.95
2018-10-01T02:45:21.326Z,966.92
2018-10-01T02:46:21.487Z,966.92
2018-10-01T02:47:21.421Z,966.94
2018-10-01T02:48:21.500Z,966.89
2018-10-01T02:49:21.520Z,966.85
2018-10-01T02:50:21.568Z,966.86
2018-10-01T02:51:21.616Z,966.84
2018-10-01T02:52:21.665Z,966.84
2018-10-01T02:53:21.768Z,966.82
2018-10-01T02:54:21.763Z,966.84
2018-10-01T02:55:21.820Z,966.80
2018-10-01T02:56:21.866Z,966.83
2018-10-01T02:57:21.908Z,966.79
2018-10-01T02:58:21.978Z,966.77
2018-10-01T02:59:22.006Z,966.76
2018-10-01T03:00:22.143Z,966.77
2018-10-01T03:01:22.105Z,966.78
2018-10-01T03:02:22.173Z,966.76
2018-10-01T03:03:22.206Z,966.75
2018-10-01T03:04:22.273Z,966.75
2018-10-01T03:05:22.298Z,966.76
2018-10-01T03:06:22.347Z,966.78
2018-10-01T03:07:22.442Z,966.77
2018-10-01T03:08:22.450Z,966.74
2018-10-01T03:09:22.510Z,966.76
2018-10-01T03:10:22.541Z,966.77
2018-10-01T03:11:22.590Z,966.75
2018-10-01T03:12:22.731Z,966.73
2018-10-01T03:13:22.694Z,966.75
2018-10-01T03:14:22.780Z,966.75
2018-10-01T03:15:22.785Z,966.72
2018-10-01T03:16:22.836Z,966.72
2018-10-01T03:17:22.883Z,966.69
2018-10-01T03:18:22.934Z,966.72
2018-10-01T03:19:23.011Z,966.68
2018-10-01T03:20:23.029Z,966.70
2018-10-01T03:21:23.118Z,966.71
2018-10-01T03:22:23.130Z,966.68
2018-10-01T03:23:23.174Z,966.69
2018-10-01T03:24:23.246Z,966.70
2018-10-01T03:25:23.283Z,966.69
2018-10-01T03:26:23.319Z,966.66
2018-10-01T03:27:23.375Z,966.70
2018-10-01T03:28:23.417Z,966.72
2018-10-01T03:29:23.488Z,966.70
2018-10-01T03:30:23.521Z,966.67
2018-10-01T03:31:23.562Z,966.65
2018-10-01T03:32:23.616Z,966.64
2018-10-01T03:33:23.662Z,966.64
2018-10-01T03:34:23.727Z,966.61
2018-10-01T03:35:23.759Z,966.64
2018-10-01T03:36:23.811Z,966.64
2018-10-01T03:37:23.890Z,966.64
2018-10-01T03:38:23.906Z,966.60
2018-10-01T03:39:23.971Z,966.59
2018-10-01T03:40:24.061Z,966.60
2018-10-01T03:41:24.050Z,966.60
2018-10-01T03:42:24.097Z,966.56
2018-10-01T03:43:24.168Z,966.55
2018-10-01T03:44:24.196Z,966.56
2018-10-01T03:45:24.245Z,966.57
2018-10-01T03:46:24.313Z,966.55
2018-10-01T03:47:24.364Z,966.57
2018-10-01T03:48:24.389Z,966.53
2018-10-01T03:49:24.434Z,966.55
2018-10-01T03:50:24.487Z,966.54
2018-10-01T03:51:24.559Z,966.52
2018-10-01T03:52:24.584Z,966.56
2018-10-01T03:53:24.634Z,966.51
2018-10-01T03:54:24.681Z,966.55
2018-10-01T03:55:24.733Z,966.51
2018-10-01T03:56:24.799Z,966.53
2018-10-01T03:57:24.829Z,966.54
2018-10-01T03:58:24.879Z,966.51
2018-10-01T03:59:24.956Z,966.55
2018-10-01T04:00:24.974Z,966.51
2018-10-01T04:01:25.021Z,966.54
2018-10-01T04:02:25.112Z,966.52
2018-10-01T04:03:25.117Z,966.59
2018-10-01T04:04:25.167Z,966.57
2018-10-01T04:05:25.223Z,966.55
2018-10-01T04:06:25.266Z,966.59
2018-10-01T04:07:25.336Z,966.55
2018-10-01T04:08:25.380Z,966.56
2018-10-01T04:09:25.434Z,966.58
2018-10-01T04:10:25.456Z,966.55
2018-10-01T04:11:25.504Z,966.57
2018-10-01T04:12:25.561Z,966.57
2018-10-01T04:13:25.608Z,966.57
2018-10-01T04:14:25.677Z,966.56
2018-10-01T04:15:25.699Z,966.56
2018-10-01T04:16:25.746Z,966.60
2018-10-01T04:17:25.816Z,966.57
2018-10-01T04:18:25.880Z,966.59
2018-10-01T04:19:25.902Z,966.59
2018-10-01T04:20:25.962Z,966.57
2018-10-01T04:21:25.989Z,966.61
2018-10-01T04:22:26.039Z,966.59
2018-10-01T04:23:26.089Z,966.60
2018-10-01T04:24:26.156Z,966.58
2018-10-01T04:25:26.184Z,966.58
2018-10-01T04:26:26.235Z,966.55
2018-10-01T04:27:26.289Z,966.54
2018-10-01T04:28:26.350Z,966.58
2018-10-01T04:29:26.380Z,966.55
2018-10-01T04:30:26.427Z,966.56
2018-10-01T04:31:26.486Z,966.56
2018-10-01T04:32:26.523Z,966.58
2018-10-01T04:33:26.592Z,966.55
2018-10-01T04:34:26.621Z,966.61
2018-10-01T04:35:26.689Z,966.59
2018-10-01T04:36:26.742Z,966.58
2018-10-01T04:37:26.766Z,966.60
2018-10-01T04:38:26.817Z,966.62
2018-10-01T04:39:26.863Z,966.60
2018-10-01T04:40:26.912Z,966.59
2018-10-01T04:41:26.992Z,966.61
2018-10-01T04:42:27.012Z,966.61
2018-10-01T04:43:27.058Z,966.59
2018-10-01T04:44:27.107Z,966.59
2018-10-01T04:45:27.153Z,966.65
2018-10-01T04:46:27.232Z,966.62
2018-10-01T04:47:27.324Z,966.62
2018-10-01T04:48:27.335Z,966.66
2018-10-01T04:49:27.348Z,966.62
2018-10-01T04:50:27.395Z,966.66
2018-10-01T04:51:27.446Z,966.58
2018-10-01T04:52:27.495Z,966.60
2018-10-01T04:53:27.570Z,966.66
2018-10-01T04:54:27.597Z,966.63
2018-10-01T04:55:27.639Z,966.65
2018-10-01T04:56:27.695Z,966.60
2018-10-01T04:57:27.734Z,966.61
2018-10-01T04:58:27.983Z,966.71
2018-10-01T04:59:27.852Z,966.61
2018-10-01T05:00:27.904Z,966.65
2018-10-01T05:01:28.053Z,966.61
2018-10-01T05:02:27.977Z,966.61
2018-10-01T05:03:28.038Z,966.62
2018-10-01T05:04:28.095Z,966.60
2018-10-01T05:05:28.128Z,966.62
2018-10-01T05:06:28.180Z,966.60
2018-10-01T05:07:28.215Z,966.62
2018-10-01T05:08:28.369Z,966.62
2018-10-01T05:09:28.340Z,966.65
2018-10-01T05:10:28.360Z,966.66
2018-10-01T05:11:28.469Z,966.61
2018-10-01T05:12:28.457Z,966.62
2018-10-01T05:13:28.518Z,966.58
2018-10-01T05:14:28.553Z,966.58
2018-10-01T05:15:28.617Z,966.62
2018-10-01T05:16:28.687Z,966.59
2018-10-01T05:17:29.626Z,966.61
2018-10-01T05:18:28.751Z,966.61
2018-10-01T05:19:28.805Z,966.63
2018-10-01T05:20:28.849Z,966.61
2018-10-01T05:21:28.910Z,966.60
2018-10-01T05:22:28.938Z,966.64
2018-10-01T05:23:28.986Z,966.65
2018-10-01T05:24:29.033Z,966.59
2018-10-01T05:25:29.084Z,966.67
2018-10-01T05:26:29.150Z,966.65
2018-10-01T05:27:29.739Z,966.60
2018-10-01T05:28:29.766Z,966.62
2018-10-01T05:29:29.278Z,966.58
2018-10-01T05:30:29.326Z,966.58
2018-10-01T05:31:29.411Z,966.57
2018-10-01T05:32:29.453Z,966.60
2018-10-01T05:33:30.285Z,966.57
2018-10-01T05:34:29.532Z,966.56
2018-10-01T05:35:29.566Z,966.58
2018-10-01T05:36:29.616Z,966.54
2018-10-01T05:37:29.694Z,966.54
2018-10-01T05:38:29.727Z,966.53
2018-10-01T05:39:29.763Z,966.54
2018-10-01T05:40:29.803Z,966.61
2018-10-01T05:41:29.859Z,966.65
2018-10-01T05:42:29.922Z,966.63
2018-10-01T05:43:29.990Z,966.67
2018-10-01T05:44:29.993Z,966.60
2018-10-01T05:45:30.066Z,966.63
2018-10-01T05:46:30.090Z,966.62
2018-10-01T05:47:30.140Z,966.59
2018-10-01T05:48:30.223Z,966.60
2018-10-01T05:49:30.238Z,966.65
2018-10-01T05:50:30.282Z,966.59
2018-10-01T05:51:30.781Z,966.66
2018-10-01T05:52:30.433Z,966.65
2018-10-01T05:53:30.444Z,966.63
2018-10-01T05:54:30.472Z,966.62
2018-10-01T05:55:30.522Z,966.65
2018-10-01T05:56:30.571Z,966.71
2018-10-01T05:57:30.653Z,966.71
2018-10-01T05:58:30.664Z,966.73
2018-10-01T05:59:30.789Z,966.79
2018-10-01T06:00:30.763Z,966.85
2018-10-01T06:01:30.810Z,966.84
2018-10-01T06:02:30.859Z,966.86
2018-10-01T06:03:30.905Z,966.87
2018-10-01T06:04:30.975Z,966.91
2018-10-01T06:05:31.024Z,966.98
2018-10-01T06:06:31.051Z,966.96
2018-10-01T06:07:31.101Z,966.98
2018-10-01T06:08:31.199Z,967.00
2018-10-01T06:09:31.199Z,967.04
2018-10-01T06:10:31.273Z,967.07
2018-10-01T06:11:31.288Z,967.12
2018-10-01T06:12:31.359Z,967.15
2018-10-01T06:13:31.382Z,967.17
2018-10-01T06:14:31.432Z,967.16
2018-10-01T06:15:31.535Z,967.22
2018-10-01T06:16:31.528Z,967.19
2018-10-01T06:17:31.575Z,967.22
2018-10-01T06:18:31.631Z,967.22
2018-10-01T06:19:31.676Z,967.24
2018-10-01T06:20:31.739Z,967.23
2018-10-01T06:21:31.765Z,967.22
2018-10-01T06:22:31.824Z,967.25
2018-10-01T06:23:31.863Z,967.26
2018-10-01T06:24:31.918Z,967.27
2018-10-01T06:25:31.985Z,967.33
2018-10-01T06:26:32.007Z,967.32
2018-10-01T06:27:32.056Z,967.33
2018-10-01T06:28:32.108Z,967.38
2018-10-01T06:29:32.148Z,967.39
2018-10-01T06:30:32.228Z,967.43
2018-10-01T06:31:32.266Z,967.49
2018-10-01T06:32:32.295Z,967.50
2018-10-01T06:33:32.337Z,967.53
2018-10-01T06:34:32.386Z,967.51
2018-10-01T06:35:32.440Z,967.57
2018-10-01T06:36:32.517Z,967.59
2018-10-01T06:37:32.536Z,967.63
2018-10-01T06:38:32.588Z,967.62
2018-10-01T06:39:32.633Z,967.66
2018-10-01T06:40:32.678Z,967.70
2018-10-01T06:41:32.762Z,967.69
2018-10-01T06:42:32.789Z,967.71
2018-10-01T06:43:32.826Z,967.68
2018-10-01T06:44:32.873Z,967.72
2018-10-01T06:45:32.923Z,967.85
2018-10-01T06:46:32.983Z,967.75
2018-10-01T06:47:33.008Z,967.80
2018-10-01T06:48:33.217Z,967.79
2018-10-01T06:49:33.108Z,967.80
2018-10-01T06:50:33.150Z,967.88
2018-10-01T06:51:33.199Z,967.83
2018-10-01T06:52:33.247Z,967.87
2018-10-01T06:53:33.320Z,967.90
2018-10-01T06:54:33.354Z,967.86
2018-10-01T06:55:33.396Z,967.91
2018-10-01T06:56:33.484Z,967.87
2018-10-01T06:57:33.484Z,967.97
2018-10-01T06:58:33.562Z,968.01
2018-10-01T06:59:33.592Z,968.02
2018-10-01T07:00:33.627Z,968.06
2018-10-01T07:01:33.685Z,968.09
2018-10-01T07:02:33.763Z,968.13
2018-10-01T07:03:33.773Z,968.13
2018-10-01T07:04:33.826Z,968.14
2018-10-01T07:05:33.891Z,968.19
2018-10-01T07:06:33.936Z,968.17
2018-10-01T07:07:33.960Z,968.09
2018-10-01T07:08:34.006Z,968.19
2018-10-01T07:09:34.253Z,968.17
2018-10-01T07:10:34.115Z,968.17
2018-10-01T07:11:34.223Z,968.20
2018-10-01T07:12:34.199Z,968.28
2018-10-01T07:13:34.247Z,968.29
2018-10-01T07:14:34.318Z,968.27
2018-10-01T07:15:34.349Z,968.34
2018-10-01T07:16:34.486Z,968.34
2018-10-01T07:17:34.443Z,968.35
2018-10-01T07:18:34.504Z,968.35
2018-10-01T07:19:34.532Z,968.33
2018-10-01T07:20:34.612Z,968.37
2018-10-01T07:21:34.628Z,968.44
2018-10-01T07:22:34.739Z,968.47
2018-10-01T07:23:34.730Z,968.48
2018-10-01T07:24:34.775Z,968.49
2018-10-01T07:25:34.840Z,968.47
2018-10-01T07:26:34.867Z,968.51
2018-10-01T07:27:34.930Z,968.49
2018-10-01T07:28:34.957Z,968.60
2018-10-01T07:29:35.036Z,968.56
2018-10-01T07:30:35.053Z,968.63
2018-10-01T07:31:35.135Z,968.60
2018-10-01T07:32:35.147Z,968.55
2018-10-01T07:33:35.196Z,968.59
2018-10-01T07:34:35.251Z,968.59
2018-10-01T07:35:35.296Z,968.53
2018-10-01T07:36:35.356Z,968.61
2018-10-01T07:37:35.405Z,968.66
2018-10-01T07:38:35.454Z,968.59
2018-10-01T07:39:35.496Z,968.59
2018-10-01T07:40:35.527Z,968.60
2018-10-01T07:41:35.578Z,968.64
2018-10-01T07:42:35.658Z,968.70
2018-10-01T07:43:35.670Z,968.68
2018-10-01T07:44:35.720Z,968.75
2018-10-01T07:45:35.762Z,968.66
2018-10-01T07:46:35.855Z,968.71
2018-10-01T07:47:35.881Z,968.79
2018-10-01T07:48:35.908Z,968.78
2018-10-01T07:49:35.958Z,968.94
2018-10-01T07:50:36.060Z,968.88
2018-10-01T07:51:36.054Z,968.95
2018-10-01T07:52:36.135Z,968.94
2018-10-01T07:53:36.252Z,968.90
2018-10-01T07:54:36.192Z,969.00
2018-10-01T07:55:36.244Z,969.17
2018-10-01T07:56:36.301Z,969.08
2018-10-01T07:57:36.435Z,969.11
2018-10-01T07:58:36.404Z,969.09
2018-10-01T07:59:36.485Z,969.13
2018-10-01T08:00:36.481Z,969.15
2018-10-01T08:01:36.523Z,969.30
2018-10-01T08:02:36.628Z,969.42
2018-10-01T08:03:36.664Z,969.47
2018-10-01T08:04:36.664Z,969.50
2018-10-01T08:05:36.714Z,969.52
2018-10-01T08:06:36.770Z,969.54
2018-10-01T08:07:36.805Z,969.56
2018-10-01T08:08:36.895Z,969.50
2018-10-01T08:09:36.936Z,969.55
2018-10-01T08:10:36.948Z,969.63
2018-10-01T08:11:36.999Z,969.59
2018-10-01T08:12:37.040Z,969.66
2018-10-01T08:13:37.113Z,969.65
2018-10-01T08:14:37.220Z,969.71
2018-10-01T08:15:37.233Z,969.70
2018-10-01T08:16:37.276Z,969.71
2018-10-01T08:17:37.278Z,969.76
2018-10-01T08:18:37.327Z,969.77
2018-10-01T08:19:37.392Z,969.80
2018-10-01T08:20:37.504Z,969.81
2018-10-01T08:21:37.491Z,969.80
2018-10-01T08:22:37.517Z,969.83
2018-10-01T08:23:37.600Z,969.80
2018-10-01T08:24:37.609Z,969.88
2018-10-01T08:25:37.654Z,969.90
2018-10-01T08:26:37.743Z,969.91
2018-10-01T08:27:37.748Z,969.96
2018-10-01T08:28:37.795Z,969.98
2018-10-01T08:29:37.865Z,970.00
2018-10-01T08:30:37.902Z,970.00
2018-10-01T08:31:37.961Z,970.05
2018-10-01T08:32:38.053Z,970.03
2018-10-01T08:33:38.032Z,970.10
2018-10-01T08:34:38.083Z,970.11
2018-10-01T08:35:38.155Z,970.14
2018-10-01T08:36:38.205Z,970.19
2018-10-01T08:37:38.294Z,970.13
2018-10-01T08:38:38.350Z,970.21
2018-10-01T08:39:38.323Z,970.22
2018-10-01T08:40:38.361Z,970.26
2018-10-01T08:41:38.436Z,970.27
2018-10-01T08:42:38.460Z,970.30
2018-10-01T08:43:38.508Z,970.30
2018-10-01T08:44:38.609Z,970.27
2018-10-01T08:45:38.599Z,970.32
2018-10-01T08:46:38.675Z,970.32
2018-10-01T08:47:38.758Z,970.39
2018-10-01T08:48:38.745Z,970.37
2018-10-01T08:49:38.791Z,970.39
2018-10-01T08:50:38.836Z,970.43
2018-10-01T08:51:39.054Z,970.45
2018-10-01T08:52:38.932Z,970.46
2018-10-01T08:53:39.025Z,970.50
2018-10-01T08:54:39.033Z,970.50
2018-10-01T08:55:39.097Z,970.51
2018-10-01T08:56:39.136Z,970.56
2018-10-01T08:57:39.172Z,970.57
2018-10-01T08:58:39.277Z,970.58
2018-10-01T08:59:39.363Z,970.63
2018-10-01T09:00:39.315Z,970.61
2018-10-01T09:01:39.394Z,970.57
2018-10-01T09:02:39.431Z,970.60
2018-10-01T09:03:39.481Z,970.66
2018-10-01T09:04:39.500Z,970.66
2018-10-01T09:05:39.567Z,970.67
2018-10-01T09:06:39.669Z,970.75
2018-10-01T09:07:39.641Z,970.72
2018-10-01T09:08:39.692Z,970.76
2018-10-01T09:09:39.765Z,970.74
2018-10-01T09:10:39.803Z,970.81
2018-10-01T09:11:39.858Z,970.77
2018-10-01T09:12:39.880Z,970.77
2018-10-01T09:13:39.942Z,970.80
2018-10-01T09:14:40.046Z,970.81
2018-10-01T09:15:40.052Z,970.82
2018-10-01T09:16:40.094Z,970.80
2018-10-01T09:17:40.131Z,970.85
2018-10-01T09:18:40.170Z,970.84
2018-10-01T09:19:40.214Z,970.84
2018-10-01T09:20:40.313Z,970.85
2018-10-01T09:21:40.339Z,970.85
2018-10-01T09:22:40.381Z,970.90
2018-10-01T09:23:40.406Z,970.94
2018-10-01T09:24:40.459Z,970.89
2018-10-01T09:25:40.500Z,970.90
2018-10-01T09:26:40.567Z,970.88
2018-10-01T09:27:40.628Z,970.90
2018-10-01T09:28:40.704Z,970.91
2018-10-01T09:29:40.769Z,970.92
2018-10-01T09:30:40.745Z,970.92
2018-10-01T09:31:40.793Z,970.91
2018-10-01T09:32:40.961Z,970.94
2018-10-01T09:33:40.894Z,970.97
2018-10-01T09:34:40.941Z,970.98
2018-10-01T09:35:41.025Z,970.97
2018-10-01T09:36:41.038Z,970.96
2018-10-01T09:37:41.108Z,970.95
2018-10-01T09:38:41.148Z,970.93
2018-10-01T09:39:41.169Z,970.92
2018-10-01T09:40:41.307Z,970.90
2018-10-01T09:41:41.273Z,970.93
2018-10-01T09:42:41.344Z,970.95
2018-10-01T09:43:41.386Z,971.01
2018-10-01T09:44:41.412Z,970.93
2018-10-01T09:45:41.460Z,970.97
2018-10-01T09:46:41.521Z,970.93
2018-10-01T09:47:41.556Z,970.94
2018-10-01T09:48:41.651Z,970.96
2018-10-01T09:49:41.655Z,970.95
2018-10-01T09:50:41.706Z,970.97
2018-10-01T09:51:41.753Z,970.95
2018-10-01T09:52:41.805Z,970.97
2018-10-01T09:53:41.905Z,970.94
2018-10-01T09:54:41.905Z,970.96
2018-10-01T09:55:41.976Z,970.96
2018-10-01T09:56:42.152Z,970.98
2018-10-01T09:57:42.038Z,970.95
2018-10-01T09:58:42.164Z,970.96
2018-10-01T09:59:42.160Z,970.98
2018-10-01T10:00:42.183Z,971.00
2018-10-01T10:01:42.242Z,971.01
2018-10-01T10:02:42.280Z,971.02
2018-10-01T10:03:42.327Z,971.07
2018-10-01T10:04:42.495Z,971.05
2018-10-01T10:05:42.451Z,971.06
2018-10-01T10:06:42.492Z,971.07
2018-10-01T10:07:42.524Z,971.14
2018-10-01T10:08:42.647Z,971.10
2018-10-01T10:09:42.634Z,971.10
2018-10-01T10:10:42.692Z,971.13
2018-10-01T10:11:42.718Z,971.11
2018-10-01T10:12:42.762Z,971.16
2018-10-01T10:13:42.814Z,971.11
2018-10-01T10:14:42.863Z,971.13
2018-10-01T10:15:42.934Z,971.16
2018-10-01T10:16:43.137Z,971.16
2018-10-01T10:17:43.005Z,971.16
2018-10-01T10:18:43.051Z,971.17
2018-10-01T10:19:43.097Z,971.20
2018-10-01T10:20:43.151Z,971.21
2018-10-01T10:21:43.246Z,971.22
2018-10-01T10:22:43.244Z,971.18
2018-10-01T10:23:43.283Z,971.19
2018-10-01T10:24:43.333Z,971.20
2018-10-01T10:25:43.384Z,971.21
2018-10-01T10:26:43.461Z,971.21
2018-10-01T10:27:43.481Z,971.24
2018-10-01T10:28:43.549Z,971.24
2018-10-01T10:29:43.575Z,971.23
2018-10-01T10:30:43.627Z,971.23
2018-10-01T10:31:43.727Z,971.21
2018-10-01T10:32:43.719Z,971.25
2018-10-01T10:33:43.791Z,971.27
2018-10-01T10:34:43.815Z,971.28
2018-10-01T10:35:43.870Z,971.25
2018-10-01T10:36:43.908Z,971.24
2018-10-01T10:37:43.981Z,971.26
2018-10-01T10:38:44.101Z,971.26
2018-10-01T10:39:44.061Z,971.25
2018-10-01T10:40:44.105Z,971.22
2018-10-01T10:41:44.225Z,971.21
2018-10-01T10:42:44.206Z,971.21
2018-10-01T10:43:44.277Z,971.21
2018-10-01T10:44:44.304Z,971.24
2018-10-01T10:45:44.346Z,971.25
2018-10-01T10:46:44.390Z,971.25
2018-10-01T10:47:44.439Z,971.24
2018-10-01T10:48:44.520Z,971.25
2018-10-01T10:49:44.551Z,971.27
2018-10-01T10:50:44.597Z,971.27
2018-10-01T10:51:44.635Z,971.30
2018-10-01T10:52:44.681Z,971.28
2018-10-01T10:53:44.760Z,971.30
2018-10-01T10:54:44.778Z,971.35
2018-10-01T10:55:44.830Z,971.34
2018-10-01T10:56:44.906Z,971.37
2018-10-01T10:57:44.925Z,971.38
2018-10-01T10:58:45.014Z,971.34
2018-10-01T10:59:45.063Z,971.36
2018-10-01T11:00:45.088Z,971.37
2018-10-01T11:01:45.135Z,971.38
2018-10-01T11:02:45.166Z,971.39
2018-10-01T11:03:45.230Z,971.35
2018-10-01T11:04:45.269Z,971.37
2018-10-01T11:05:45.313Z,971.35
2018-10-01T11:06:45.389Z,971.30
2018-10-01T11:07:45.408Z,971.29
2018-10-01T11:08:45.465Z,971.31
2018-10-01T11:09:45.525Z,971.33
2018-10-01T11:10:45.555Z,971.32
2018-10-01T11:11:45.601Z,971.30
2018-10-01T11:12:45.668Z,971.32
2018-10-01T11:13:45.776Z,971.29
2018-10-01T11:14:45.883Z,971.28
2018-10-01T11:15:45.804Z,971.28
2018-10-01T11:16:45.882Z,971.27
2018-10-01T11:17:45.901Z,971.22
2018-10-01T11:18:46.067Z,971.24
2018-10-01T11:19:46.091Z,971.24
2018-10-01T11:20:46.078Z,971.22
2018-10-01T11:21:46.128Z,971.23
2018-10-01T11:22:46.157Z,971.23
2018-10-01T11:23:46.213Z,971.23
2018-10-01T11:24:46.245Z,971.25
2018-10-01T11:25:46.286Z,971.29
2018-10-01T11:26:46.345Z,971.28
2018-10-01T11:27:46.405Z,971.26
2018-10-01T11:28:46.469Z,971.29
2018-10-01T11:29:46.593Z,971.30
2018-10-01T11:30:46.538Z,971.37
2018-10-01T11:31:46.727Z,971.31
2018-10-01T11:32:46.640Z,971.33
2018-10-01T11:33:46.726Z,971.31
2018-10-01T11:34:46.746Z,971.28
2018-10-01T11:35:46.777Z,971.32
2018-10-01T11:36:46.895Z,971.31
2018-10-01T11:37:46.901Z,971.33
2018-10-01T11:38:46.948Z,971.35
2018-10-01T11:39:47.042Z,971.39
2018-10-01T11:40:47.021Z,971.39
2018-10-01T11:41:47.074Z,971.39
2018-10-01T11:42:47.131Z,971.40
2018-10-01T11:43:47.235Z,971.40
2018-10-01T11:44:47.220Z,971.41
2018-10-01T11:45:47.307Z,971.38
2018-10-01T11:46:47.318Z,971.40
2018-10-01T11:47:47.374Z,971.38
2018-10-01T11:48:47.414Z,971.38
2018-10-01T11:49:47.482Z,971.36
2018-10-01T11:50:47.558Z,971.40
2018-10-01T11:51:47.646Z,971.39
2018-10-01T11:52:47.645Z,971.38
2018-10-01T11:53:47.672Z,971.38
2018-10-01T11:54:47.710Z,971.40
2018-10-01T11:55:47.791Z,971.39
2018-10-01T11:56:48.293Z,971.41
2018-10-01T11:57:47.909Z,971.39
2018-10-01T11:58:47.922Z,971.37
2018-10-01T11:59:48.004Z,971.37
2018-10-01T12:00:48.003Z,971.41
2018-10-01T12:01:48.053Z,971.44
2018-10-01T12:02:48.102Z,971.39
2018-10-01T12:03:48.285Z,971.35
2018-10-01T12:04:48.231Z,971.36
2018-10-01T12:05:48.282Z,971.37
2018-10-01T12:06:48.312Z,971.38
2018-10-01T12:07:48.368Z,971.35
2018-10-01T12:08:48.407Z,971.36
2018-10-01T12:09:48.546Z,971.36
2018-10-01T12:10:48.528Z,971.37
2018-10-01T12:11:48.543Z,971.35
2018-10-01T12:12:48.599Z,971.37
2018-10-01T12:13:48.656Z,971.40
2018-10-01T12:14:48.695Z,971.42
2018-10-01T12:15:48.852Z,971.37
2018-10-01T12:16:48.798Z,971.42
2018-10-01T12:17:48.860Z,971.40
2018-10-01T12:18:48.888Z,971.40
2018-10-01T12:19:48.937Z,971.37
2018-10-01T12:20:49.035Z,971.36
2018-10-01T12:21:49.190Z,971.37
2018-10-01T12:22:49.082Z,971.39
2018-10-01T12:23:49.139Z,971.45
2018-10-01T12:24:49.177Z,971.44
2018-10-01T12:25:49.227Z,971.47
2018-10-01T12:26:49.302Z,971.49
2018-10-01T12:27:49.328Z,971.49
2018-10-01T12:28:49.381Z,971.47